Time;durP1;ratioP1;P1;durP2;ratioP2;P2;SDS_P1;SDS_P2;PMS_P1;PMS_P2;Temp;Humidity;BMP_temperature;BMP_pressure;BME280_temperature;BME280_humidity;BME280_pressure;Samples;Min_cycle;Max_cycle;Signal;HPM_P1;HPM_P2
2022/04/28 00:01:28;;;;;;;0.00;0.00;;;11.10;99.90;;;9.44;100.00;100533.44;10399746;27;96704;-84
2022/04/28 00:06:35;;;;;;;0.37;0.37;;;11.00;99.90;;;9.43;100.00;100534.44;10388147;27;96788;-84
2022/04/28 00:11:37;;;;;;;0.00;0.00;;;11.00;99.90;;;9.40;100.00;100519.63;10407683;27;96607;-84
2022/04/28 00:16:41;;;;;;;0.00;0.00;;;11.00;99.90;;;9.39;100.00;100516.16;10396883;27;96675;-85
2022/04/28 00:21:44;;;;;;;0.00;0.00;;;11.00;99.90;;;9.39;100.00;100515.31;10451800;27;97616;-85
2022/04/28 00:26:48;;;;;;;0.00;0.00;;;11.00;99.90;;;9.37;100.00;100520.78;10405961;27;96488;-84
2022/04/28 00:31:52;;;;;;;0.37;0.37;;;11.00;99.90;;;9.41;100.00;100517.81;10439534;27;98160;-84
2022/04/28 00:36:56;;;;;;;0.00;0.00;;;11.00;99.90;;;9.42;100.00;100519.50;10395641;27;97434;-84
2022/04/28 00:42:00;;;;;;;0.00;0.00;;;11.00;99.90;;;9.42;100.00;100519.50;10375095;27;96582;-84
2022/04/28 00:47:03;;;;;;;0.00;0.00;;;11.00;99.90;;;9.39;100.00;100521.47;10396537;27;96437;-84
2022/04/28 00:52:07;;;;;;;0.00;0.00;;;11.00;99.90;;;9.39;100.00;100524.09;10389904;28;97039;-84
2022/04/28 00:57:14;;;;;;;0.00;0.00;;;11.00;99.90;;;9.39;100.00;100532.06;10381377;27;97571;-84
2022/04/28 01:02:19;;;;;;;0.00;0.00;;;11.00;99.90;;;9.41;100.00;100523.13;10405512;27;97555;-84
2022/04/28 01:07:23;;;;;;;0.27;0.20;;;11.00;99.90;;;9.38;100.00;100514.50;10405230;27;96801;-84
2022/04/28 01:12:26;;;;;;;0.10;0.10;;;11.00;99.90;;;9.37;100.00;100514.66;10373575;27;97544;-84
2022/04/28 01:17:30;;;;;;;0.00;0.00;;;11.00;99.90;;;9.34;100.00;100507.81;10412976;27;97261;-84
2022/04/28 01:22:33;;;;;;;0.00;0.00;;;11.00;99.90;;;9.35;100.00;100504.16;10403592;27;96710;-84
2022/04/28 01:27:38;;;;;;;0.00;0.00;;;11.00;99.90;;;9.34;100.00;100496.38;10399342;27;96888;-84
2022/04/28 01:32:42;;;;;;;0.10;0.10;;;11.00;99.90;;;9.34;100.00;100502.50;10391815;27;96648;-84
2022/04/28 01:37:46;;;;;;;0.00;0.00;;;10.90;99.90;;;9.32;100.00;100495.69;10402349;27;96631;-85
2022/04/28 01:42:50;;;;;;;0.00;0.00;;;10.90;99.90;;;9.31;100.00;100492.22;10415397;27;97320;-83
2022/04/28 01:47:53;;;;;;;0.10;0.10;;;10.90;99.90;;;9.31;100.00;100497.53;10395910;27;96580;-84
2022/04/28 01:58:18;;;;;;;;;;;10.90;99.90;;;9.30;100.00;100495.03;10414002;27;96679;-84
2022/04/28 02:03:20;;;;;;;0.00;0.00;;;10.90;99.90;;;9.27;100.00;100495.31;10422474;27;96505;-84
2022/04/28 02:08:24;;;;;;;0.20;0.13;;;10.90;99.90;;;9.26;100.00;100491.00;10407414;27;96699;-84
2022/04/28 02:13:27;;;;;;;0.00;0.00;;;10.90;99.90;;;9.25;100.00;100495.47;10403691;27;96609;-84
2022/04/28 02:18:32;;;;;;;0.00;0.00;;;10.90;99.90;;;9.27;100.00;100496.16;10383086;27;98300;-84
2022/04/28 02:23:36;;;;;;;0.00;0.00;;;10.90;99.90;;;9.26;100.00;100497.16;10383262;27;99489;-84
2022/04/28 02:28:41;;;;;;;0.00;0.00;;;10.90;99.90;;;9.26;100.00;100491.84;10415887;27;96574;-84
2022/04/28 02:33:44;;;;;;;0.00;0.00;;;10.90;99.90;;;9.24;100.00;100501.78;10382438;27;97339;-84
2022/04/28 02:38:47;;;;;;;0.00;0.00;;;10.90;99.90;;;9.24;100.00;100487.69;10429422;27;96650;-84
2022/04/28 02:43:51;;;;;;;0.13;0.13;;;10.80;99.90;;;9.21;100.00;100494.09;10375963;27;96563;-84
2022/04/28 02:48:56;;;;;;;0.00;0.00;;;10.80;99.90;;;9.19;99.46;100482.00;10422571;27;97090;-84
2022/04/28 02:53:58;;;;;;;0.00;0.00;;;10.80;99.90;;;9.18;98.68;100490.94;10375329;27;96965;-84
2022/04/28 02:59:03;;;;;;;0.43;0.30;;;10.80;99.90;;;9.16;98.07;100487.59;10388491;27;96930;-84
2022/04/28 03:04:07;;;;;;;0.00;0.00;;;10.80;99.90;;;9.14;97.88;100484.28;10421950;27;96658;-84
2022/04/28 03:14:32;;;;;;;0.00;0.00;;;10.80;99.90;;;9.13;97.69;100496.69;10388041;27;96573;-84
2022/04/28 03:19:39;;;;;;;0.30;0.30;;;10.80;99.90;;;9.11;97.64;100501.28;10413150;27;96574;-84
2022/04/28 03:24:42;;;;;;;0.00;0.00;;;10.80;99.90;;;9.10;96.97;100496.97;10385619;27;96713;-84
2022/04/28 03:29:45;;;;;;;0.00;0.00;;;10.70;99.90;;;9.08;96.34;100506.91;10384569;27;96590;-85
2022/04/28 03:34:48;;;;;;;0.33;0.33;;;10.70;99.90;;;9.05;96.13;100501.91;10415030;27;96740;-84
2022/04/28 03:39:51;;;;;;;0.00;0.00;;;10.70;99.90;;;9.02;95.75;100502.22;10375385;27;97097;-84
2022/04/28 03:44:55;;;;;;;0.20;0.10;;;10.60;99.90;;;8.98;95.47;100514.91;10403171;27;98349;-83
2022/04/28 03:49:59;;;;;;;0.00;0.00;;;10.60;99.90;;;8.95;94.99;100523.19;10409673;27;96891;-83
2022/04/28 03:55:03;;;;;;;0.00;0.00;;;10.60;99.90;;;8.94;94.52;100528.66;10415857;27;96427;-83
2022/04/28 04:00:08;;;;;;;0.00;0.00;;;10.60;99.90;;;8.93;94.30;100522.47;10400154;27;96535;-83
2022/04/28 04:05:11;;;;;;;0.00;0.00;;;10.50;99.90;;;8.93;94.96;100530.44;10377957;27;96426;-83
2022/04/28 04:10:16;;;;;;;0.00;0.00;;;10.50;99.90;;;8.94;94.96;100526.00;10375448;27;96678;-83
2022/04/28 04:15:19;;;;;;;0.00;0.00;;;10.50;99.90;;;8.99;94.58;100527.19;10375860;27;96607;-84
2022/04/28 04:20:22;;;;;;;0.00;0.00;;;10.50;99.90;;;9.05;94.18;100529.25;10374133;27;96509;-83
2022/04/28 04:25:25;;;;;;;0.00;0.00;;;10.60;99.90;;;9.14;93.17;100527.53;10393804;27;97655;-83
2022/04/28 04:36:01;;;;;;;0.10;0.10;;;10.70;99.90;;;9.29;92.31;100533.94;10413832;27;96546;-84
2022/04/28 04:41:05;;;;;;;1.30;0.20;;;10.80;99.90;;;9.37;92.15;100534.03;10390419;27;96500;-83
2022/04/28 04:46:08;;;;;;;0.40;0.40;;;10.90;99.90;;;9.48;91.77;100540.13;10380259;27;96649;-83
2022/04/28 04:51:13;;;;;;;0.00;0.00;;;11.00;99.90;;;9.57;91.02;100534.72;10379681;27;96383;-83
2022/04/28 04:56:16;;;;;;;1.70;0.33;;;11.10;99.90;;;9.70;90.07;100539.63;10380172;27;96656;-84
2022/04/28 05:01:19;;;;;;;9.33;4.43;;;11.20;99.90;;;9.87;90.19;100540.59;10388547;27;96721;-84
2022/04/28 05:06:22;;;;;;;9.60;4.50;;;11.30;99.90;;;10.04;90.05;100552.16;10390744;27;97064;-83
2022/04/28 05:11:30;;;;;;;8.53;4.90;;;11.50;99.90;;;10.15;89.35;100563.34;10379447;27;100398;-84
2022/04/28 05:16:33;;;;;;;4.13;2.73;;;11.60;99.90;;;10.24;88.18;100553.63;10380401;27;98173;-84
2022/04/28 05:21:36;;;;;;;2.47;1.17;;;11.70;99.90;;;10.31;86.93;100559.97;10387011;27;96819;-84
2022/04/28 05:26:39;;;;;;;1.77;0.97;;;11.80;99.90;;;10.35;85.72;100560.50;10390163;27;97171;-84
2022/04/28 05:31:42;;;;;;;3.60;1.40;;;11.80;99.90;;;10.40;85.37;100563.53;10386569;27;98527;-84
2022/04/28 05:36:46;;;;;;;1.07;0.70;;;11.80;99.90;;;10.48;84.86;100576.84;10421427;27;96429;-84
2022/04/28 05:41:55;;;;;;;0.50;0.43;;;11.90;99.90;;;10.51;84.63;100571.22;10394169;27;97272;-84
2022/04/28 05:46:58;;;;;;;0.00;0.00;;;12.00;99.90;;;10.57;84.22;100577.75;10392819;27;98052;-84
2022/04/28 05:52:02;;;;;;;0.43;0.30;;;12.00;99.90;;;10.61;84.13;100576.41;10400914;28;96664;-84
2022/04/28 05:57:05;;;;;;;0.00;0.00;;;12.10;99.90;;;10.67;84.10;100576.59;10412474;27;97457;-84
2022/04/28 06:02:08;;;;;;;0.00;0.00;;;12.20;99.90;;;10.74;83.24;100579.47;10405302;27;96614;-83
2022/04/28 06:07:11;;;;;;;0.30;0.20;;;12.20;99.90;;;10.81;82.14;100577.84;10399422;27;96417;-84
2022/04/28 06:12:16;;;;;;;0.07;0.07;;;12.30;99.90;;;10.86;80.49;100588.00;10385757;27;96537;-84
2022/04/28 06:17:19;;;;;;;0.00;0.00;;;12.30;99.90;;;10.87;80.91;100587.84;10379392;27;97084;-84
2022/04/28 06:22:23;;;;;;;0.00;0.00;;;12.40;99.90;;;10.90;79.38;100587.50;10401930;27;96666;-84
2022/04/28 06:27:28;;;;;;;0.00;0.00;;;12.40;99.90;;;10.93;78.87;100592.50;10391129;27;96535;-84
2022/04/28 06:32:32;;;;;;;0.00;0.00;;;12.40;99.90;;;10.97;78.16;100596.53;10392558;27;96786;-85
2022/04/28 06:37:35;;;;;;;0.00;0.00;;;12.40;99.90;;;11.00;77.22;100595.38;10406666;28;96844;-85
2022/04/28 06:42:43;;;;;;;0.00;0.00;;;12.40;99.90;;;11.04;76.79;100594.06;10416465;28;96448;-85
2022/04/28 06:47:46;;;;;;;0.00;0.00;;;12.50;99.90;;;11.10;76.74;100593.41;10386933;27;96659;-86
2022/04/28 06:52:49;;;;;;;0.00;0.00;;;12.50;99.90;;;11.18;78.46;100600.56;10375511;28;97217;-85
2022/04/28 06:57:52;;;;;;;0.00;0.00;;;12.60;99.90;;;11.27;77.25;100594.25;10385234;27;96604;-85
2022/04/28 07:02:55;;;;;;;0.00;0.00;;;12.70;99.90;;;11.39;76.04;100592.13;10388066;27;96506;-85
2022/04/28 07:07:58;;;;;;;0.00;0.00;;;12.80;99.90;;;11.51;74.97;100607.66;10374419;28;96614;-85
2022/04/28 07:13:02;;;;;;;0.00;0.00;;;12.90;99.90;;;11.65;74.81;100611.47;10386898;27;96688;-85
2022/04/28 07:18:05;;;;;;;0.00;0.00;;;13.00;99.90;;;11.80;72.95;100608.97;10376429;27;97167;-85
2022/04/28 07:23:08;;;;;;;0.00;0.00;;;13.10;99.90;;;11.98;73.51;100606.19;10374830;28;96482;-85
2022/04/28 07:28:11;;;;;;;0.00;0.00;;;13.30;99.90;;;12.13;71.90;100606.38;10374663;28;96322;-84
2022/04/28 07:33:14;;;;;;;0.00;0.00;;;13.40;99.90;;;12.23;71.85;100613.16;10373261;27;97013;-84
2022/04/28 07:38:17;;;;;;;0.77;0.40;;;13.50;99.90;;;12.29;71.98;100616.97;10374760;28;96597;-86
2022/04/28 07:43:20;;;;;;;0.27;0.27;;;13.60;99.90;;;12.38;70.80;100621.31;10408519;27;97074;-85
2022/04/28 07:48:25;;;;;;;0.00;0.00;;;13.70;99.90;;;12.53;71.35;100616.09;10413582;28;96446;-86
2022/04/28 07:53:28;;;;;;;0.00;0.00;;;13.80;99.90;;;12.83;71.76;100618.03;10415691;28;96760;-84
2022/04/28 07:58:32;;;;;;;0.17;0.17;;;14.10;99.90;;;13.16;67.81;100612.56;10376950;27;96468;-86
2022/04/28 08:03:35;;;;;;;0.00;0.00;;;14.40;99.90;;;13.49;64.54;100617.72;10374125;27;96708;-86
2022/04/28 08:08:38;;;;;;;0.25;0.25;;;14.70;93.90;;;13.83;63.57;100620.81;10374375;27;96506;-85
2022/04/28 08:13:42;;;;;;;0.40;0.22;;;15.00;97.00;;;14.14;61.99;100626.09;10372619;27;98828;-85
2022/04/28 08:18:45;;;;;;;0.00;0.00;;;15.30;93.00;;;14.37;60.39;100628.72;10380304;28;97407;-85
2022/04/28 08:23:48;;;;;;;0.00;0.00;;;15.60;87.60;;;14.38;59.22;100637.56;10380865;28;96514;-85
2022/04/28 08:28:51;;;;;;;0.00;0.00;;;15.60;92.50;;;14.38;58.62;100627.69;10368788;27;96779;-85
2022/04/28 08:33:54;;;;;;;0.00;0.00;;;15.70;94.60;;;14.49;56.90;100631.81;10403598;27;97665;-86
2022/04/28 08:38:57;;;;;;;0.00;0.00;;;15.80;90.60;;;14.60;58.05;100635.88;10381860;27;96778;-84
2022/04/28 08:44:05;;;;;;;0.10;0.10;;;15.90;86.70;;;14.59;55.65;100640.41;10380216;27;98214;-85
2022/04/28 08:49:14;;;;;;;0.45;0.45;;;16.00;89.60;;;14.53;54.59;100633.09;10381577;27;96678;-85
2022/04/28 08:54:26;;;;;;;0.00;0.00;;;15.90;86.40;;;14.51;55.96;100643.13;10380758;28;96465;-84
2022/04/28 08:59:29;;;;;;;0.08;0.08;;;15.90;80.50;;;14.48;55.83;100637.34;10397636;27;96966;-84
2022/04/28 09:04:32;;;;;;;0.00;0.00;;;15.90;82.70;;;14.50;55.28;100644.16;10383947;27;96994;-85
2022/04/28 09:09:36;;;;;;;0.00;0.00;;;15.90;83.90;;;14.51;56.67;100651.16;10390739;28;96424;-85
2022/04/28 09:14:46;;;;;;;0.00;0.00;;;15.90;84.60;;;14.64;58.40;100645.22;10379022;27;96676;-84
2022/04/28 09:19:58;;;;;;;0.43;0.43;;;16.00;84.20;;;14.91;57.69;100649.91;10362080;28;96580;-84
2022/04/28 09:25:01;;;;;;;0.00;0.00;;;16.20;83.50;;;15.19;55.70;100641.22;10379222;28;96460;-84
2022/04/28 09:30:05;;;;;;;0.00;0.00;;;16.40;83.00;;;15.55;55.24;100635.88;10388696;27;96640;-84
2022/04/28 09:35:11;;;;;;;0.10;0.10;;;16.70;85.80;;;15.96;56.43;100635.28;10376906;28;96557;-84
2022/04/28 09:45:38;;;;;;;0.43;0.43;;;17.40;77.90;;;16.54;53.47;100631.38;10378068;27;96595;-82
2022/04/28 09:50:41;;;;;;;0.57;0.57;;;17.70;75.50;;;16.80;49.93;100635.31;10378602;28;97011;-85
2022/04/28 09:55:45;;;;;;;0.00;0.00;;;17.90;74.70;;;17.16;51.42;100626.19;10406280;28;97293;-84
2022/04/28 10:00:49;;;;;;;0.10;0.00;;;18.30;78.10;;;17.50;49.94;100625.25;10410874;27;97324;-84
2022/04/28 10:05:52;;;;;;;0.20;0.20;;;18.70;73.70;;;17.64;46.72;100627.78;10417843;28;96423;-84
2022/04/28 10:10:57;;;;;;;0.10;0.10;;;18.80;63.60;;;17.58;46.42;100615.16;10410243;27;96428;-84
2022/04/28 10:16:04;;;;;;;0.00;0.00;;;18.80;66.50;;;17.59;45.50;100624.88;10371275;28;98545;-84
2022/04/28 10:21:13;;;;;;;0.00;0.00;;;18.80;65.70;;;17.47;46.77;100626.50;10392163;28;96556;-83
2022/04/28 10:37:12;;;;;;;0.00;0.00;;;18.20;64.90;;;16.48;49.60;100642.91;10376333;28;96500;-83
2022/04/28 10:42:28;;;;;;;0.00;0.00;;;17.90;67.20;;;16.44;49.84;100636.28;10376470;27;96502;-83
2022/04/28 10:47:37;;;;;;;0.00;0.00;;;17.90;68.40;;;16.51;51.27;100633.66;10375804;28;96489;-83
2022/04/28 10:52:40;;;;;;;0.10;0.10;;;17.90;67.00;;;16.59;46.43;100633.50;10376303;28;97198;-83
2022/04/28 10:57:43;;;;;;;0.20;0.20;;;18.00;65.80;;;16.62;48.47;100633.09;10410956;27;96559;-84
2022/04/28 11:02:46;;;;;;;0.00;0.00;;;18.00;67.40;;;16.60;50.46;100643.19;10409115;27;96438;-83
2022/04/28 11:07:53;;;;;;;0.00;0.00;;;18.00;67.40;;;16.55;49.79;100642.94;10377564;27;97195;-83
2022/04/28 11:12:56;;;;;;;0.00;0.00;;;17.90;65.50;;;16.50;48.64;100637.38;10385785;27;96608;-84
2022/04/28 11:17:59;;;;;;;0.05;0.05;;;17.90;66.70;;;16.50;50.33;100650.78;10363362;28;96630;-84
2022/04/28 11:23:02;;;;;;;0.00;0.00;;;17.90;67.50;;;16.53;50.38;100650.38;10377228;27;96657;-84
2022/04/28 11:28:09;;;;;;;0.00;0.00;;;17.90;68.00;;;16.51;51.13;100657.78;10398528;28;96550;-83
2022/04/28 11:33:13;;;;;;;0.00;0.00;;;17.90;67.80;;;16.37;49.67;100661.38;10407962;27;98261;-83
2022/04/28 11:38:27;;;;;;;0.00;0.00;;;17.70;65.50;;;16.29;51.16;100665.88;10425916;27;97165;-83
2022/04/28 11:43:34;;;;;;;0.00;0.00;;;17.70;68.50;;;16.18;51.18;100666.38;10417911;27;96616;-83
2022/04/28 11:48:38;;;;;;;0.03;0.03;;;17.60;68.40;;;16.15;51.37;100664.09;10451477;27;96656;-84
2022/04/28 11:53:44;;;;;;;0.00;0.00;;;17.50;69.20;;;16.11;50.68;100668.19;10430167;27;96964;-84
2022/04/28 11:58:52;;;;;;;0.00;0.00;;;17.50;67.60;;;16.10;50.24;100671.91;10429560;27;96533;-83
2022/04/28 12:03:57;;;;;;;0.00;0.00;;;17.50;66.20;;;16.12;50.72;100669.84;10400512;27;96432;-85
2022/04/28 12:14:22;;;;;;;0.00;0.00;;;17.50;67.00;;;16.17;51.25;100666.59;10400616;27;96593;-84
2022/04/28 12:14:27;;;;;;;0.00;0.00;;;17.50;67.50;;;16.26;51.73;100666.28;10415285;27;97046;-84
2022/04/28 12:19:31;;;;;;;0.00;0.00;;;17.60;68.80;;;16.33;50.95;100672.50;10394266;27;96874;-85
2022/04/28 12:24:34;;;;;;;0.50;0.50;;;17.70;67.60;;;16.37;51.65;100672.94;10399071;27;97965;-84
2022/04/28 12:29:55;;;;;;;0.43;0.15;;;17.70;69.10;;;16.39;50.42;100670.09;10405638;27;96590;-84
2022/04/28 12:35:01;;;;;;;0.47;0.25;;;17.70;67.10;;;16.43;49.94;100672.16;10410295;27;97016;-84
2022/04/28 12:40:05;;;;;;;0.13;0.05;;;17.70;66.50;;;16.50;49.06;100658.81;10387572;27;96692;-83
2022/04/28 12:45:08;;;;;;;0.00;0.00;;;17.80;65.40;;;16.54;48.83;100677.00;10429118;27;98312;-83
2022/04/28 12:50:23;;;;;;;0.00;0.00;;;17.90;64.70;;;16.55;48.59;100661.72;10413516;27;96465;-85
2022/04/28 12:55:36;;;;;;;0.08;0.08;;;17.90;65.00;;;16.66;48.07;100657.69;10396377;27;96639;-85
2022/04/28 13:00:40;;;;;;;0.00;0.00;;;18.00;64.70;;;16.94;48.29;100663.06;10416526;28;97285;-85
2022/04/28 13:05:43;;;;;;;0.10;0.10;;;18.30;64.80;;;17.24;47.93;100661.75;10379993;27;96563;-84
2022/04/28 13:10:46;;;;;;;0.00;0.00;;;18.60;64.70;;;17.42;46.50;100655.84;10405550;27;96726;-84
2022/04/28 13:15:49;;;;;;;0.10;0.10;;;18.70;61.40;;;17.69;46.48;100662.09;10399241;28;97001;-84
2022/04/28 13:20:52;;;;;;;0.08;0.08;;;19.00;61.30;;;18.33;44.57;100656.22;10391766;27;96696;-85
2022/04/28 13:25:55;;;;;;;0.20;0.20;;;19.80;59.70;;;18.88;44.25;100645.19;10401622;28;96692;-85
2022/04/28 13:30:58;;;;;;;2.67;1.08;;;20.30;59.80;;;19.42;42.77;100643.94;10440510;27;96551;-84
2022/04/28 13:36:02;;;;;;;0.00;0.00;;;20.90;56.70;;;19.77;41.74;100644.41;10416235;27;96634;-85
2022/04/28 13:41:07;;;;;;;0.32;0.32;;;21.30;58.70;;;19.94;39.86;100632.03;10383981;27;96562;-85
2022/04/28 13:46:18;;;;;;;0.00;0.00;;;21.50;51.50;;;19.90;39.81;100628.13;10381753;27;96596;-85
2022/04/28 13:51:21;;;;;;;0.10;0.03;;;21.50;52.80;;;19.71;40.93;100631.78;10379302;27;96531;-85
2022/04/28 13:56:24;;;;;;;0.00;0.00;;;21.30;55.40;;;19.79;39.60;100623.41;10377697;27;96662;-86
2022/04/28 14:01:29;;;;;;;0.00;0.00;;;21.30;51.80;;;19.64;39.22;100618.34;10412374;27;96475;-84
2022/04/28 14:06:33;;;;;;;0.00;0.00;;;21.20;51.40;;;19.76;39.58;100616.59;10431636;27;98325;-85
2022/04/28 14:11:36;;;;;;;0.00;0.00;;;21.20;51.70;;;20.40;39.92;100616.53;10395860;27;96509;-85
2022/04/28 14:16:39;;;;;;;0.00;0.00;;;21.80;53.20;;;21.34;36.66;100610.69;10362389;27;97151;-85
2022/04/28 14:21:42;;;;;;;0.10;0.10;;;22.70;49.40;;;21.78;35.17;100607.81;10438668;27;98409;-86
2022/04/28 14:26:46;;;;;;;0.00;0.00;;;23.10;46.80;;;21.52;34.84;100611.72;10405983;27;97472;-85
2022/04/28 14:31:50;;;;;;;0.10;0.10;;;23.00;46.40;;;20.76;36.55;100619.28;10397153;27;99089;-85
2022/04/28 14:36:56;;;;;;;0.00;0.00;;;22.40;50.20;;;20.07;37.90;100623.03;10414956;27;96716;-84
2022/04/28 14:42:00;;;;;;;0.47;0.32;;;21.70;51.10;;;19.51;39.05;100618.41;10421652;27;96652;-84
2022/04/28 14:47:23;;;;;;;0.00;0.00;;;21.20;51.90;;;18.88;39.49;100627.16;10385725;27;96584;-85
2022/04/28 14:52:27;;;;;;;0.20;0.20;;;20.60;53.20;;;18.32;40.70;100635.72;10414897;28;98204;-84
2022/04/28 14:57:34;;;;;;;0.00;0.00;;;20.00;53.10;;;17.91;42.05;100639.44;10417969;27;96580;-85
2022/04/28 15:02:37;;;;;;;0.25;0.25;;;19.50;55.00;;;17.57;43.50;100639.53;10412641;27;96595;-87
2022/04/28 15:07:41;;;;;;;0.63;0.32;;;19.20;57.10;;;17.35;44.45;100639.69;10428811;27;97028;-88
2022/04/28 15:12:44;;;;;;;0.05;0.00;;;18.90;57.80;;;17.20;44.90;100641.69;10429555;27;96952;-88
2022/04/28 15:17:51;;;;;;;0.00;0.00;;;18.80;57.50;;;17.07;45.02;100647.81;10422259;27;97923;-88
2022/04/28 15:22:58;;;;;;;0.15;0.08;;;18.60;57.80;;;16.99;46.31;100644.50;10402779;27;96606;-87
2022/04/28 15:28:01;;;;;;;0.32;0.32;;;18.50;60.00;;;16.94;47.36;100646.94;10429944;27;96899;-87
2022/04/28 15:33:06;;;;;;;0.00;0.00;;;18.50;60.50;;;16.95;49.36;100648.59;10409198;27;96618;-87
2022/04/28 15:38:10;;;;;;;0.00;0.00;;;18.50;62.10;;;16.93;48.71;100656.03;10418624;27;96991;-87
2022/04/28 15:43:13;;;;;;;0.00;0.00;;;18.50;61.90;;;16.89;49.40;100655.59;10403798;27;97863;-87
2022/04/28 15:48:16;;;;;;;0.32;0.32;;;18.40;62.10;;;16.86;50.52;100650.63;10415523;27;98527;-87
2022/04/28 15:53:19;;;;;;;0.00;0.00;;;18.40;63.80;;;16.84;50.02;100658.03;10399882;27;96824;-85
2022/04/28 15:58:23;;;;;;;0.55;0.38;;;18.40;63.70;;;16.81;50.76;100666.50;10378538;27;96658;-84
2022/04/28 16:03:27;;;;;;;0.00;0.00;;;18.30;64.00;;;16.76;51.55;100663.56;10414187;28;96579;-85
2022/04/28 16:08:30;;;;;;;0.00;0.00;;;18.30;65.20;;;16.74;52.64;100673.69;10393873;27;96612;-84
2022/04/28 16:13:33;;;;;;;0.00;0.00;;;18.30;66.70;;;16.67;52.36;100673.56;10398703;27;97057;-88
2022/04/28 16:18:37;;;;;;;0.00;0.00;;;18.20;66.20;;;16.65;52.41;100675.63;10406175;27;96543;-88
2022/04/28 16:23:40;;;;;;;0.00;0.00;;;18.20;66.10;;;16.61;51.91;100674.34;10408836;27;97473;-88
2022/04/28 16:28:43;;;;;;;0.00;0.00;;;18.20;64.90;;;16.58;52.17;100677.44;10380659;27;96935;-87
2022/04/28 16:33:47;;;;;;;0.20;0.20;;;18.10;64.70;;;16.50;51.49;100677.59;10409237;27;98374;-88
2022/04/28 16:38:50;;;;;;;0.00;0.00;;;18.10;65.20;;;16.45;54.04;100680.03;10434103;27;96707;-88
2022/04/28 16:43:55;;;;;;;0.08;0.08;;;18.10;67.70;;;16.37;53.99;100686.34;10420907;27;96698;-88
2022/04/28 16:48:58;;;;;;;0.00;0.00;;;18.00;66.30;;;16.29;54.97;100692.69;10409018;27;96620;-88
2022/04/28 16:54:19;;;;;;;0.35;0.15;;;17.90;67.20;;;16.19;56.69;100692.19;10420219;27;96822;-89
2022/04/28 16:59:31;;;;;;;;;;;17.80;69.40;;;16.11;58.76;100702.22;10424392;27;96471;-88
2022/04/28 17:04:36;;;;;;;0.20;0.15;;;17.80;71.20;;;15.97;59.77;100704.78;10422885;28;96820;-88
2022/04/28 17:09:42;;;;;;;0.00;0.00;;;17.70;73.00;;;15.85;60.44;100716.19;10440655;27;96472;-89
2022/04/28 17:14:45;;;;;;;0.13;0.13;;;17.60;74.40;;;15.73;61.83;100723.88;10385821;27;97249;-88
2022/04/28 17:19:48;;;;;;;1.30;0.57;;;17.50;75.90;;;15.60;58.33;100727.22;10365702;27;96613;-89
2022/04/28 17:24:51;;;;;;;0.00;0.00;;;17.30;72.30;;;15.48;57.97;100729.53;10401250;27;97239;-89
2022/04/28 17:29:54;;;;;;;0.52;0.28;;;17.20;71.60;;;15.36;59.25;100743.59;10416749;27;96625;-88
2022/04/28 17:34:57;;;;;;;0.00;0.00;;;17.00;74.30;;;15.25;60.73;100748.38;10455968;27;96714;-89
2022/04/28 17:40:00;;;;;;;0.00;0.00;;;16.90;76.40;;;15.13;60.09;100765.91;10375188;27;96667;-91
2022/04/28 17:45:05;;;;;;;0.43;0.43;;;16.80;73.90;;;15.02;58.78;100784.28;10381774;27;98603;-91
2022/04/28 17:50:08;;;;;;;0.10;0.05;;;16.70;73.80;;;14.93;59.96;100788.84;10377577;27;96891;-91
2022/04/28 18:00:33;;;;;;;0.00;0.00;;;16.50;77.10;;;14.69;62.51;100801.47;10385840;27;97902;-92
2022/04/28 18:05:37;;;;;;;0.13;0.13;;;16.40;78.20;;;14.57;63.07;100808.22;10389932;28;96647;-91
2022/04/28 18:10:40;;;;;;;0.00;0.00;;;16.30;79.10;;;14.41;62.94;100817.19;10389621;27;97549;-91
2022/04/28 18:15:44;;;;;;;0.00;0.00;;;16.20;81.50;;;14.27;63.46;100828.63;10438689;27;96872;-91
2022/04/28 18:20:47;;;;;;;0.20;0.20;;;16.00;83.40;;;14.13;64.46;100837.41;10425121;27;96696;-90
2022/04/28 18:25:51;;;;;;;0.60;0.10;;;15.90;87.00;;;13.98;64.40;100853.34;10382402;27;98654;-91
2022/04/28 18:30:54;;;;;;;0.00;0.00;;;15.70;87.60;;;13.87;65.51;100861.75;10402767;27;96658;-90
2022/04/28 18:46:40;;;;;;;;;;;15.30;91.90;;;13.54;67.36;100877.03;10420445;27;96629;-91
2022/04/28 18:51:44;;;;;;;0.00;0.00;;;15.20;93.20;;;13.39;67.76;100887.59;10396708;27;98315;-91
2022/04/28 18:56:47;;;;;;;0.00;0.00;;;15.10;93.90;;;13.23;68.51;100892.94;10375942;27;96532;-91
2022/04/28 19:01:50;;;;;;;0.00;0.00;;;14.90;94.60;;;13.05;68.80;100893.91;10400527;27;98603;-91
2022/04/28 19:06:55;;;;;;;0.00;0.00;;;14.80;95.50;;;12.92;69.07;100904.25;10396618;27;96622;-90
2022/04/28 19:11:59;;;;;;;0.00;0.00;;;14.60;96.30;;;12.78;69.55;100920.91;10411249;27;98317;-91
2022/04/28 19:17:03;;;;;;;0.00;0.00;;;14.50;96.50;;;12.64;69.07;100918.88;10408216;27;96727;-91
2022/04/28 19:22:07;;;;;;;0.00;0.00;;;14.40;96.30;;;12.50;68.83;100923.84;10425125;27;96963;-90
2022/04/28 19:27:14;;;;;;;0.07;0.07;;;14.20;96.20;;;12.39;68.50;100932.16;10428503;27;96700;-90
2022/04/28 19:32:18;;;;;;;1.20;0.10;;;14.10;95.70;;;12.29;68.53;100934.97;10418615;27;96747;-90
2022/04/28 19:37:22;;;;;;;0.00;0.00;;;14.00;95.80;;;12.19;68.54;100936.06;10402235;27;98356;-90
2022/04/28 19:42:25;;;;;;;0.00;0.00;;;13.90;95.80;;;12.10;67.59;100942.34;10445939;27;96642;-90
2022/04/28 19:47:30;;;;;;;0.20;0.20;;;13.80;95.10;;;12.01;67.91;100947.66;10417383;27;96454;-89
2022/04/28 19:52:36;;;;;;;0.20;0.20;;;13.70;94.60;;;11.95;67.22;100961.59;10421823;27;96478;-90
2022/04/28 19:57:39;;;;;;;0.33;0.30;;;13.60;94.60;;;11.90;67.29;100963.91;10398438;27;96704;-89
2022/04/28 20:02:43;;;;;;;0.10;0.10;;;13.60;95.00;;;11.87;67.85;100968.69;10418429;27;96617;-89
2022/04/28 20:07:49;;;;;;;0.00;0.00;;;13.50;95.30;;;11.80;67.25;100965.78;10393848;27;96631;-89
2022/04/28 20:12:52;;;;;;;0.00;0.00;;;13.50;94.80;;;11.78;67.42;100975.78;10452338;27;96502;-89
2022/04/28 20:17:57;;;;;;;0.00;0.00;;;13.40;94.10;;;11.76;65.80;100975.94;10412312;27;97404;-89
2022/04/28 20:23:01;;;;;;;0.00;0.00;;;13.40;92.70;;;11.76;65.59;100977.78;10405541;28;96655;-91
2022/04/28 20:28:04;;;;;;;0.17;0.10;;;13.40;92.70;;;11.79;64.79;100980.09;10414693;27;96780;-90
2022/04/28 20:33:07;;;;;;;0.10;0.10;;;13.40;92.00;;;11.79;63.45;100980.94;10405324;27;96621;-90
2022/04/28 20:38:13;;;;;;;0.00;0.00;;;13.40;90.50;;;11.79;61.90;100980.94;10406646;27;96583;-89
2022/04/28 20:43:16;;;;;;;0.00;0.00;;;13.40;87.00;;;11.77;61.05;100988.25;10402620;27;97003;-89
2022/04/28 20:48:20;;;;;;;0.00;0.00;;;13.40;86.00;;;11.72;61.26;100992.38;10425814;27;96557;-89
2022/04/28 20:53:23;;;;;;;0.00;0.00;;;13.40;86.40;;;11.66;61.07;100998.31;10386236;27;96666;-89
2022/04/28 20:58:25;;;;;;;0.00;0.00;;;13.40;85.50;;;11.62;60.10;101012.94;10404743;27;97493;-89
2022/04/28 21:03:29;;;;;;;0.50;0.50;;;13.30;84.90;;;11.56;60.37;101018.88;10419251;27;96597;-89
2022/04/28 21:08:32;;;;;;;0.00;0.00;;;13.30;84.90;;;11.49;60.98;101024.81;10399282;27;96631;-90
2022/04/28 21:13:35;;;;;;;0.00;0.00;;;13.20;85.80;;;11.45;61.65;101022.59;10381032;27;96491;-90
2022/04/28 21:18:38;;;;;;;0.00;0.00;;;13.10;87.20;;;11.39;61.84;101020.56;10417744;27;96584;-89
2022/04/28 21:23:41;;;;;;;0.00;0.00;;;13.10;86.80;;;11.32;62.28;101023.00;10416033;27;96661;-90
2022/04/28 21:28:44;;;;;;;0.00;0.00;;;13.00;87.70;;;11.25;62.90;101035.25;10408397;27;96622;-90
2022/04/28 21:33:48;;;;;;;0.00;0.00;;;13.00;88.80;;;11.20;62.89;101040.16;10389177;27;98499;-90
2022/04/28 21:38:51;;;;;;;0.00;0.00;;;12.90;89.30;;;11.17;63.79;101043.16;10410377;27;98202;-89
2022/04/28 21:43:54;;;;;;;0.20;0.20;;;12.90;90.60;;;11.14;63.45;101046.09;10419213;27;96720;-89